Time;durP1;ratioP1;P1;durP2;ratioP2;P2;SDS_P1;SDS_P2;PMS_P1;PMS_P2;Temp;Humidity;BMP_temperature;BMP_pressure;BME280_temperature;BME280_humidity;BME280_pressure;Samples;Min_cycle;Max_cycle;Signal;HPM_P1;HPM_P2
2021/10/30 00:02:02;;;;;;;;;;;18.20;60.70;;;;;;5038925;28;19913;-57
2021/10/30 00:04:27;;;;;;;;;;;18.20;60.70;;;;;;5033790;28;19913;-57
2021/10/30 00:06:53;;;;;;;;;;;18.20;60.70;;;;;;5030783;28;19923;-57
2021/10/30 00:09:21;;;;;;;;;;;18.20;60.70;;;;;;5027210;28;21360;-57
2021/10/30 00:11:46;;;;;;;;;;;18.20;60.70;;;;;;5032833;28;19913;-55
2021/10/30 00:14:11;;;;;;;;;;;18.20;60.70;;;;;;5027715;28;19918;-56
2021/10/30 00:16:37;;;;;;;;;;;18.20;60.70;;;;;;5032613;28;19972;-53
2021/10/30 00:19:03;;;;;;;;;;;18.20;60.70;;;;;;5032693;28;19917;-59
2021/10/30 00:21:28;;;;;;;;;;;18.20;60.70;;;;;;5030998;28;19929;-58
2021/10/30 00:23:55;;;;;;;;;;;18.20;60.70;;;;;;5023680;28;19913;-59
2021/10/30 00:26:20;;;;;;;;;;;18.20;60.70;;;;;;5036331;28;20294;-57
2021/10/30 00:28:45;;;;;;;;;;;18.20;60.70;;;;;;5044756;28;19962;-58
2021/10/30 00:31:11;;;;;;;;;;;18.20;60.70;;;;;;5025584;28;20283;-54
2021/10/30 00:33:36;;;;;;;;;;;18.20;60.60;;;;;;5040369;28;19913;-54
2021/10/30 00:36:03;;;;;;;;;;;18.20;60.60;;;;;;5032083;28;19920;-58
2021/10/30 00:38:29;;;;;;;;;;;18.20;60.60;;;;;;5039232;28;19917;-52
2021/10/30 00:40:54;;;;;;;;;;;18.20;60.60;;;;;;5030124;28;19925;-55
2021/10/30 00:43:20;;;;;;;;;;;18.20;60.60;;;;;;5037067;28;19921;-60
2021/10/30 00:45:46;;;;;;;;;;;18.20;60.60;;;;;;5019992;28;20501;-58
2021/10/30 00:48:11;;;;;;;;;;;18.20;60.50;;;;;;5035091;28;19913;-53
2021/10/30 00:50:37;;;;;;;;;;;18.20;60.60;;;;;;5039755;28;19913;-54
2021/10/30 00:53:02;;;;;;;;;;;18.20;60.60;;;;;;5030910;28;20279;-56
2021/10/30 00:55:28;;;;;;;;;;;18.20;60.50;;;;;;5042665;28;20000;-60
2021/10/30 00:57:53;;;;;;;;;;;18.20;60.60;;;;;;5042328;28;20366;-56
2021/10/30 01:00:19;;;;;;;;;;;18.20;60.60;;;;;;5025190;28;19920;-53
2021/10/30 01:02:44;;;;;;;;;;;18.20;60.50;;;;;;5027751;28;19913;-50
2021/10/30 01:05:10;;;;;;;;;;;18.20;60.50;;;;;;5026282;28;19921;-58
2021/10/30 01:07:36;;;;;;;;;;;18.20;60.50;;;;;;5038036;28;19913;-59
2021/10/30 01:10:01;;;;;;;;;;;18.20;60.50;;;;;;5028844;28;19913;-54
2021/10/30 01:12:27;;;;;;;;;;;18.20;60.50;;;;;;5023277;28;20023;-56
2021/10/30 01:14:52;;;;;;;;;;;18.20;60.50;;;;;;5030247;28;19921;-55
2021/10/30 01:17:18;;;;;;;;;;;18.20;60.50;;;;;;5026454;28;20398;-53
2021/10/30 01:19:43;;;;;;;;;;;18.20;60.50;;;;;;5031149;28;19952;-53
2021/10/30 01:22:09;;;;;;;;;;;18.10;60.50;;;;;;5038649;28;19917;-52
2021/10/30 01:24:34;;;;;;;;;;;18.10;60.50;;;;;;5035494;28;19912;-59
2021/10/30 01:27:00;;;;;;;;;;;18.20;60.50;;;;;;5031770;28;19924;-54
2021/10/30 01:29:25;;;;;;;;;;;18.20;60.40;;;;;;5039391;28;19954;-59
2021/10/30 01:31:53;;;;;;;;;;;18.20;60.50;;;;;;5024609;28;19924;-55
2021/10/30 01:34:18;;;;;;;;;;;18.20;60.50;;;;;;5031368;28;19913;-53
2021/10/30 01:36:44;;;;;;;;;;;18.10;60.50;;;;;;5024676;28;19913;-59
2021/10/30 01:39:09;;;;;;;;;;;18.10;60.50;;;;;;5036354;28;19929;-56
2021/10/30 01:41:35;;;;;;;;;;;18.20;60.50;;;;;;5002979;28;20000;-56
2021/10/30 01:44:00;;;;;;;;;;;18.10;60.50;;;;;;5013111;28;20306;-55
2021/10/30 01:46:26;;;;;;;;;;;18.10;60.60;;;;;;5024914;28;20393;-54
2021/10/30 01:48:51;;;;;;;;;;;18.10;60.50;;;;;;5027249;28;19912;-54
2021/10/30 01:51:17;;;;;;;;;;;18.10;61.20;;;;;;5033287;28;20546;-50
2021/10/30 01:53:43;;;;;;;;;;;18.10;60.60;;;;;;5037490;28;19945;-54
2021/10/30 01:56:08;;;;;;;;;;;18.10;60.60;;;;;;5028016;28;20678;-58
2021/10/30 01:58:34;;;;;;;;;;;18.10;60.60;;;;;;5025194;28;20325;-55
2021/10/30 02:00:59;;;;;;;;;;;18.10;60.60;;;;;;5023860;28;19921;-57
2021/10/30 02:03:25;;;;;;;;;;;18.10;60.60;;;;;;5029870;28;20000;-59
2021/10/30 02:05:51;;;;;;;;;;;18.10;60.60;;;;;;5029763;28;19920;-57
2021/10/30 02:08:16;;;;;;;;;;;18.10;60.50;;;;;;5022832;28;19971;-58
2021/10/30 02:10:42;;;;;;;;;;;18.10;60.50;;;;;;5019665;28;19921;-58
2021/10/30 02:13:07;;;;;;;;;;;18.10;60.60;;;;;;5039283;28;19912;-58
2021/10/30 02:15:33;;;;;;;;;;;18.10;60.60;;;;;;5036216;28;20298;-59
2021/10/30 02:17:58;;;;;;;;;;;18.10;60.50;;;;;;5031100;28;19917;-57
2021/10/30 02:20:23;;;;;;;;;;;18.10;60.60;;;;;;5019275;28;19917;-56
2021/10/30 02:22:52;;;;;;;;;;;18.10;60.70;;;;;;5003990;28;19913;-58
2021/10/30 02:25:18;;;;;;;;;;;18.10;60.50;;;;;;5026192;28;19925;-53
2021/10/30 02:27:43;;;;;;;;;;;18.10;60.50;;;;;;5021728;28;19921;-58
2021/10/30 02:30:09;;;;;;;;;;;18.10;60.50;;;;;;5035962;28;19917;-58
2021/10/30 02:32:34;;;;;;;;;;;18.10;61.10;;;;;;5022113;28;19913;-55
2021/10/30 02:34:59;;;;;;;;;;;18.10;60.40;;;;;;5028645;28;19917;-57
2021/10/30 02:37:25;;;;;;;;;;;18.10;60.50;;;;;;5033122;28;19913;-52
2021/10/30 02:39:50;;;;;;;;;;;18.10;60.50;;;;;;5023558;28;19920;-55
2021/10/30 02:42:16;;;;;;;;;;;18.10;60.60;;;;;;5032613;28;19913;-58
2021/10/30 02:44:41;;;;;;;;;;;18.10;60.50;;;;;;5037728;28;19920;-51
2021/10/30 02:47:07;;;;;;;;;;;18.10;60.50;;;;;;5033711;28;19967;-54
2021/10/30 02:49:33;;;;;;;;;;;18.10;60.50;;;;;;5022211;28;20005;-56
2021/10/30 02:51:58;;;;;;;;;;;18.10;60.50;;;;;;5018817;28;19914;-58
2021/10/30 02:54:24;;;;;;;;;;;18.10;60.50;;;;;;5040499;28;19920;-58
2021/10/30 02:56:49;;;;;;;;;;;18.10;60.50;;;;;;5039596;28;20330;-52
2021/10/30 02:59:15;;;;;;;;;;;18.10;60.50;;;;;;5031500;28;19928;-54
2021/10/30 03:01:40;;;;;;;;;;;18.10;60.50;;;;;;5029375;28;20630;-54
2021/10/30 03:04:06;;;;;;;;;;;18.10;60.50;;;;;;5032991;28;19920;-54
2021/10/30 03:06:31;;;;;;;;;;;18.10;60.50;;;;;;5039537;28;19939;-53
2021/10/30 03:08:57;;;;;;;;;;;18.10;60.50;;;;;;5033817;28;19913;-50
2021/10/30 03:11:22;;;;;;;;;;;18.10;60.50;;;;;;5030828;28;20378;-56
2021/10/30 03:13:48;;;;;;;;;;;18.10;60.50;;;;;;5036346;28;19913;-54
2021/10/30 03:16:14;;;;;;;;;;;18.10;60.50;;;;;;5031401;28;20996;-54
2021/10/30 03:18:39;;;;;;;;;;;18.10;60.50;;;;;;5032823;28;19916;-56
2021/10/30 03:21:04;;;;;;;;;;;18.00;60.50;;;;;;5032607;28;20383;-58
2021/10/30 03:23:30;;;;;;;;;;;18.00;60.50;;;;;;5024372;28;19922;-55
2021/10/30 03:25:55;;;;;;;;;;;18.00;60.50;;;;;;5020068;28;19913;-58
2021/10/30 03:28:21;;;;;;;;;;;18.00;60.50;;;;;;5025635;28;19917;-57
2021/10/30 03:30:46;;;;;;;;;;;18.00;60.50;;;;;;5037687;28;19920;-55
2021/10/30 03:33:12;;;;;;;;;;;18.00;60.50;;;;;;5025256;28;20477;-54
2021/10/30 03:35:38;;;;;;;;;;;18.00;60.50;;;;;;5028319;28;19952;-56
2021/10/30 03:38:03;;;;;;;;;;;18.00;60.50;;;;;;5028083;28;19923;-57
2021/10/30 03:40:28;;;;;;;;;;;18.00;60.60;;;;;;5044320;28;20666;-56
2021/10/30 03:42:54;;;;;;;;;;;18.00;60.60;;;;;;5031751;28;19912;-57
2021/10/30 03:45:19;;;;;;;;;;;18.00;60.60;;;;;;5026493;28;19913;-58
2021/10/30 03:47:45;;;;;;;;;;;18.00;60.50;;;;;;5034128;28;19975;-55
2021/10/30 03:50:10;;;;;;;;;;;18.00;60.60;;;;;;5040567;28;20426;-53
2021/10/30 03:52:36;;;;;;;;;;;18.00;60.50;;;;;;5037788;28;19913;-57
2021/10/30 03:55:01;;;;;;;;;;;18.00;60.50;;;;;;5036059;28;19913;-56
2021/10/30 03:57:27;;;;;;;;;;;18.00;60.60;;;;;;5024387;28;20005;-57
2021/10/30 03:59:52;;;;;;;;;;;18.00;60.60;;;;;;5024166;28;19921;-55
2021/10/30 04:02:19;;;;;;;;;;;18.00;60.50;;;;;;5034930;28;19913;-59
2021/10/30 04:04:44;;;;;;;;;;;17.90;60.50;;;;;;5031023;28;19952;-58
2021/10/30 04:07:09;;;;;;;;;;;17.90;60.60;;;;;;5032855;28;20365;-55
2021/10/30 04:09:35;;;;;;;;;;;17.90;60.60;;;;;;5025462;28;19913;-55
2021/10/30 04:12:00;;;;;;;;;;;17.90;60.60;;;;;;5044108;28;20329;-55
2021/10/30 04:14:26;;;;;;;;;;;18.00;60.60;;;;;;5036187;28;19967;-57
2021/10/30 04:16:51;;;;;;;;;;;18.00;60.60;;;;;;5063119;22;19932;-57
2021/10/30 04:19:17;;;;;;;;;;;18.00;60.50;;;;;;5074323;28;19970;-57
2021/10/30 04:21:42;;;;;;;;;;;18.00;60.50;;;;;;5065497;28;19920;-57
2021/10/30 04:24:08;;;;;;;;;;;18.00;60.50;;;;;;5064818;28;19912;-56
2021/10/30 04:26:33;;;;;;;;;;;18.00;60.50;;;;;;5065773;28;19919;-55
2021/10/30 04:28:59;;;;;;;;;;;18.00;60.60;;;;;;5080175;28;20284;-51
2021/10/30 04:31:26;;;;;;;;;;;17.90;60.60;;;;;;5076521;28;20023;-57
2021/10/30 04:33:53;;;;;;;;;;;17.90;60.70;;;;;;5068457;28;19912;-56
2021/10/30 04:36:19;;;;;;;;;;;17.90;60.80;;;;;;5067049;28;19920;-52
2021/10/30 04:38:44;;;;;;;;;;;17.90;60.90;;;;;;5073321;28;19932;-56
2021/10/30 04:41:10;;;;;;;;;;;17.90;61.00;;;;;;5073800;28;19912;-55
2021/10/30 04:43:35;;;;;;;;;;;17.90;60.90;;;;;;5084240;28;19950;-56
2021/10/30 04:46:01;;;;;;;;;;;17.90;60.80;;;;;;5064613;28;19916;-55
2021/10/30 04:48:26;;;;;;;;;;;17.90;60.70;;;;;;5068366;28;20541;-57
2021/10/30 04:50:52;;;;;;;;;;;17.90;60.60;;;;;;5077423;28;20297;-56
2021/10/30 04:53:17;;;;;;;;;;;18.00;60.50;;;;;;5066234;28;19920;-57
2021/10/30 04:55:42;;;;;;;;;;;18.00;60.30;;;;;;5074914;28;19920;-55
2021/10/30 04:58:08;;;;;;;;;;;18.00;60.20;;;;;;5068386;28;19916;-57
2021/10/30 05:00:33;;;;;;;;;;;18.10;60.10;;;;;;5072772;28;20365;-54
2021/10/30 05:02:59;;;;;;;;;;;18.10;60.00;;;;;;5074762;28;19913;-55
2021/10/30 05:05:24;;;;;;;;;;;18.10;59.90;;;;;;5078591;28;19999;-57
2021/10/30 05:07:50;;;;;;;;;;;18.20;59.70;;;;;;5079966;28;21365;-53
2021/10/30 05:10:15;;;;;;;;;;;18.20;59.50;;;;;;5081110;28;20628;-54
2021/10/30 05:12:41;;;;;;;;;;;18.30;59.40;;;;;;5066887;28;19916;-56
2021/10/30 05:15:06;;;;;;;;;;;18.40;59.30;;;;;;5063830;28;19916;-55
2021/10/30 05:17:32;;;;;;;;;;;18.40;59.20;;;;;;5064784;28;19927;-56
2021/10/30 05:19:57;;;;;;;;;;;18.40;59.10;;;;;;5074581;28;20652;-58
2021/10/30 05:22:23;;;;;;;;;;;18.40;59.00;;;;;;5081755;28;19916;-56
2021/10/30 05:24:48;;;;;;;;;;;18.40;58.90;;;;;;5076183;28;19982;-55
2021/10/30 05:27:15;;;;;;;;;;;18.40;58.80;;;;;;5078787;28;19969;-58
2021/10/30 05:29:40;;;;;;;;;;;18.50;58.90;;;;;;5074965;28;19938;-55
2021/10/30 05:32:06;;;;;;;;;;;18.50;58.80;;;;;;5079086;28;19913;-56
2021/10/30 05:34:31;;;;;;;;;;;18.50;58.80;;;;;;5066020;28;19912;-58
2021/10/30 05:36:57;;;;;;;;;;;18.40;58.70;;;;;;5077012;28;20324;-55
2021/10/30 05:39:23;;;;;;;;;;;18.50;58.80;;;;;;5072684;28;19924;-57
2021/10/30 05:41:49;;;;;;;;;;;18.50;58.80;;;;;;5072088;28;19925;-54
2021/10/30 05:44:14;;;;;;;;;;;18.40;59.40;;;;;;5082065;22;19900;-55
2021/10/30 05:46:40;;;;;;;;;;;18.40;58.80;;;;;;5044237;28;19947;-56
2021/10/30 05:49:06;;;;;;;;;;;18.40;58.80;;;;;;5041111;28;19943;-55
2021/10/30 05:51:32;;;;;;;;;;;18.40;58.80;;;;;;5040739;28;19963;-57
2021/10/30 05:53:58;;;;;;;;;;;18.40;58.90;;;;;;5040362;28;19914;-56
2021/10/30 05:56:23;;;;;;;;;;;18.40;58.90;;;;;;5040312;28;19935;-57
2021/10/30 05:58:49;;;;;;;;;;;18.40;58.80;;;;;;5045771;28;19948;-56
2021/10/30 06:01:14;;;;;;;;;;;18.30;58.90;;;;;;5047723;28;19921;-54
2021/10/30 06:03:39;;;;;;;;;;;18.40;59.00;;;;;;5057680;28;20545;-54
2021/10/30 06:06:05;;;;;;;;;;;18.30;59.00;;;;;;5056603;28;19940;-53
2021/10/30 06:08:30;;;;;;;;;;;18.30;59.10;;;;;;5055101;28;19928;-53
2021/10/30 06:10:56;;;;;;;;;;;18.20;59.10;;;;;;5048090;28;19913;-57
2021/10/30 06:13:21;;;;;;;;;;;18.20;59.20;;;;;;5052912;28;20575;-56
2021/10/30 06:15:47;;;;;;;;;;;18.20;59.80;;;;;;5052235;28;19940;-58
2021/10/30 06:18:12;;;;;;;;;;;18.20;59.30;;;;;;5052030;28;20397;-55
2021/10/30 06:20:38;;;;;;;;;;;18.20;59.30;;;;;;5048219;28;19920;-56
2021/10/30 06:23:03;;;;;;;;;;;18.20;59.40;;;;;;5040266;28;19916;-57
2021/10/30 06:25:29;;;;;;;;;;;18.20;59.40;;;;;;5044466;28;19916;-56
2021/10/30 06:27:55;;;;;;;;;;;18.10;59.40;;;;;;5072239;28;19913;-57
2021/10/30 06:30:20;;;;;;;;;;;18.10;59.50;;;;;;5055420;28;19920;-57
2021/10/30 06:32:46;;;;;;;;;;;18.10;59.70;;;;;;5044551;28;19921;-55
2021/10/30 06:35:11;;;;;;;;;;;18.10;59.60;;;;;;5041387;28;19913;-56
2021/10/30 06:37:39;;;;;;;;;;;18.00;59.70;;;;;;5049771;28;20407;-57
2021/10/30 06:40:09;;;;;;;;;;;18.00;60.10;;;;;;5049778;28;20005;-58
2021/10/30 06:42:34;;;;;;;;;;;18.00;60.30;;;;;;5049394;28;19921;-56
2021/10/30 06:45:00;;;;;;;;;;;18.00;60.50;;;;;;5048677;28;19930;-57
2021/10/30 06:47:25;;;;;;;;;;;18.00;60.70;;;;;;5059522;28;19940;-53
2021/10/30 06:49:52;;;;;;;;;;;18.00;60.90;;;;;;5028146;28;19927;-57
2021/10/30 06:52:18;;;;;;;;;;;18.00;61.10;;;;;;5050793;28;19935;-56
2021/10/30 06:54:43;;;;;;;;;;;18.00;61.30;;;;;;5052108;28;20377;-55
2021/10/30 06:57:09;;;;;;;;;;;18.00;61.40;;;;;;5045075;28;19917;-56
2021/10/30 06:59:35;;;;;;;;;;;18.00;61.50;;;;;;5046980;28;19924;-56
2021/10/30 07:02:01;;;;;;;;;;;18.00;62.00;;;;;;5037991;28;19913;-58
2021/10/30 07:04:27;;;;;;;;;;;18.00;62.00;;;;;;5040569;28;20007;-55
2021/10/30 07:06:52;;;;;;;;;;;18.00;62.20;;;;;;5049845;28;20313;-53
2021/10/30 07:09:18;;;;;;;;;;;18.00;62.20;;;;;;5039068;28;19913;-54
2021/10/30 07:11:44;;;;;;;;;;;18.00;62.80;;;;;;5054504;28;19924;-57
2021/10/30 07:14:10;;;;;;;;;;;18.00;62.20;;;;;;5045929;28;19913;-52
2021/10/30 07:16:36;;;;;;;;;;;18.00;62.10;;;;;;5047588;28;19913;-56
2021/10/30 07:19:01;;;;;;;;;;;18.00;62.00;;;;;;5033585;28;20310;-58
2021/10/30 07:21:27;;;;;;;;;;;18.00;61.90;;;;;;5045204;28;19921;-62
2021/10/30 07:23:52;;;;;;;;;;;18.00;61.80;;;;;;5054251;28;19988;-56
2021/10/30 07:26:18;;;;;;;;;;;17.90;61.80;;;;;;5040849;28;20516;-56
2021/10/30 07:28:43;;;;;;;;;;;18.00;61.70;;;;;;5046047;28;19917;-55
2021/10/30 07:31:09;;;;;;;;;;;18.00;61.60;;;;;;5053195;28;19912;-53
2021/10/30 07:33:34;;;;;;;;;;;17.90;61.50;;;;;;5043695;28;19994;-56
2021/10/30 07:36:00;;;;;;;;;;;17.90;61.40;;;;;;5045032;28;19920;-53
2021/10/30 07:38:25;;;;;;;;;;;18.00;61.40;;;;;;5044344;28;19974;-53
2021/10/30 07:40:50;;;;;;;;;;;17.90;61.20;;;;;;5045267;28;20384;-57
2021/10/30 07:43:17;;;;;;;;;;;17.90;61.20;;;;;;5049855;28;19912;-56
2021/10/30 07:45:42;;;;;;;;;;;17.90;61.10;;;;;;5042342;28;20008;-56
2021/10/30 07:48:09;;;;;;;;;;;17.90;61.00;;;;;;5047546;28;20012;-53
2021/10/30 07:50:34;;;;;;;;;;;17.90;61.00;;;;;;5052463;28;20572;-55
2021/10/30 07:53:00;;;;;;;;;;;17.90;61.00;;;;;;5052539;28;19916;-55
2021/10/30 07:55:26;;;;;;;;;;;17.90;61.00;;;;;;5041936;28;20030;-53
2021/10/30 07:57:51;;;;;;;;;;;17.90;61.00;;;;;;5048190;28;19974;-57
2021/10/30 08:00:17;;;;;;;;;;;17.90;60.90;;;;;;5043775;28;19928;-55
2021/10/30 08:02:42;;;;;;;;;;;17.90;60.90;;;;;;5049708;28;19913;-56
2021/10/30 08:05:08;;;;;;;;;;;17.90;60.90;;;;;;5044416;28;19913;-54
2021/10/30 08:07:34;;;;;;;;;;;17.90;60.80;;;;;;5052605;28;19916;-57
2021/10/30 08:10:00;;;;;;;;;;;17.90;61.00;;;;;;5042970;28;19917;-58
2021/10/30 08:12:25;;;;;;;;;;;17.90;61.40;;;;;;5054602;28;20366;-55
2021/10/30 08:14:51;;;;;;;;;;;17.90;62.00;;;;;;5044553;28;19917;-56
2021/10/30 08:17:16;;;;;;;;;;;17.90;62.40;;;;;;5046755;28;20943;-55
2021/10/30 08:19:42;;;;;;;;;;;17.90;62.60;;;;;;5041052;28;19939;-56
2021/10/30 08:22:07;;;;;;;;;;;17.90;63.00;;;;;;5045209;28;19917;-55
2021/10/30 08:24:33;;;;;;;;;;;17.90;63.10;;;;;;5043842;28;19913;-57
2021/10/30 08:26:58;;;;;;;;;;;17.90;63.00;;;;;;5051795;28;19916;-53
2021/10/30 08:29:24;;;;;;;;;;;18.00;63.30;;;;;;5041806;28;19921;-55
2021/10/30 08:31:49;;;;;;;;;;;17.90;63.30;;;;;;5052277;28;19928;-55
2021/10/30 08:34:15;;;;;;;;;;;18.00;63.30;;;;;;5048527;28;19924;-54
2021/10/30 08:36:41;;;;;;;;;;;18.00;63.30;;;;;;5043411;28;20424;-54
2021/10/30 08:39:06;;;;;;;;;;;17.90;63.20;;;;;;5045593;28;19917;-53
2021/10/30 08:41:32;;;;;;;;;;;17.90;63.10;;;;;;5043746;28;19920;-55
2021/10/30 08:43:57;;;;;;;;;;;17.90;63.10;;;;;;5059109;28;19920;-57
2021/10/30 08:46:23;;;;;;;;;;;17.90;63.20;;;;;;5054523;28;20533;-55
2021/10/30 08:48:48;;;;;;;;;;;17.90;63.20;;;;;;5055314;28;19955;-57
2021/10/30 08:51:14;;;;;;;;;;;17.90;63.00;;;;;;5059541;28;20385;-57
2021/10/30 08:53:39;;;;;;;;;;;18.00;63.10;;;;;;5062549;28;20003;-56
2021/10/30 08:56:07;;;;;;;;;;;17.90;63.00;;;;;;5057225;28;20428;-57
2021/10/30 08:58:33;;;;;;;;;;;17.90;62.80;;;;;;5048712;28;19966;-56
2021/10/30 09:00:59;;;;;;;;;;;17.90;63.40;;;;;;5047741;28;19917;-55
2021/10/30 09:03:24;;;;;;;;;;;17.90;62.70;;;;;;5052664;28;19952;-57
2021/10/30 09:05:51;;;;;;;;;;;17.90;62.50;;;;;;5039383;28;20100;-53
2021/10/30 09:08:17;;;;;;;;;;;17.90;62.50;;;;;;5045872;28;20373;-56
2021/10/30 09:10:43;;;;;;;;;;;17.90;62.50;;;;;;5062958;28;20392;-56
2021/10/30 09:13:10;;;;;;;;;;;17.90;62.30;;;;;;5058154;28;19928;-55
2021/10/30 09:15:37;;;;;;;;;;;17.90;62.30;;;;;;5062243;28;19913;-55
2021/10/30 09:18:03;;;;;;;;;;;17.90;62.30;;;;;;5051230;28;19917;-54
2021/10/30 09:20:38;;;;;;;;;;;17.90;62.30;;;;;;5050052;28;19913;-56
2021/10/30 09:23:09;;;;;;;;;;;17.90;62.20;;;;;;5039063;28;19912;-57
2021/10/30 09:25:34;;;;;;;;;;;17.90;62.20;;;;;;5047653;28;19928;-54
2021/10/30 09:28:01;;;;;;;;;;;17.90;62.10;;;;;;5051465;28;19913;-55
2021/10/30 09:30:36;;;;;;;;;;;17.90;62.10;;;;;;5042377;28;19913;-55
2021/10/30 09:33:05;;;;;;;;;;;17.90;62.10;;;;;;5048152;28;19924;-56
2021/10/30 09:35:31;;;;;;;;;;;17.90;62.10;;;;;;5050888;28;19916;-58
2021/10/30 09:37:56;;;;;;;;;;;17.90;62.10;;;;;;5056007;28;19916;-54
2021/10/30 09:40:23;;;;;;;;;;;17.90;62.10;;;;;;5046684;28;19924;-53
2021/10/30 09:42:52;;;;;;;;;;;18.00;62.00;;;;;;5042152;28;20019;-56
2021/10/30 09:45:17;;;;;;;;;;;18.00;61.80;;;;;;5046501;28;19929;-56
2021/10/30 09:47:45;;;;;;;;;;;18.00;61.50;;;;;;5055751;28;19916;-53
2021/10/30 09:50:23;;;;;;;;;;;18.00;61.30;;;;;;5053498;28;19912;-54
2021/10/30 09:52:49;;;;;;;;;;;18.00;61.10;;;;;;5047806;28;19912;-54
2021/10/30 09:55:21;;;;;;;;;;;18.00;60.90;;;;;;5062436;28;19912;-57
2021/10/30 09:57:46;;;;;;;;;;;18.00;60.70;;;;;;5053449;28;20027;-53
2021/10/30 10:00:12;;;;;;;;;;;18.00;60.50;;;;;;5044162;28;20422;-56
2021/10/30 10:02:38;;;;;;;;;;;18.00;60.30;;;;;;5042823;28;19917;-52
2021/10/30 10:05:05;;;;;;;;;;;18.00;60.10;;;;;;5053287;28;19963;-56
2021/10/30 10:07:32;;;;;;;;;;;18.00;60.00;;;;;;5042992;28;20408;-58
2021/10/30 10:09:57;;;;;;;;;;;18.00;59.90;;;;;;5049759;28;19920;-54
2021/10/30 10:12:23;;;;;;;;;;;18.00;59.80;;;;;;5051041;28;20305;-56
2021/10/30 10:14:49;;;;;;;;;;;18.10;59.70;;;;;;5042015;28;19919;-57
2021/10/30 10:17:14;;;;;;;;;;;18.00;59.70;;;;;;5050792;28;19979;-56
2021/10/30 10:19:40;;;;;;;;;;;18.00;59.80;;;;;;5045078;28;19917;-53
2021/10/30 10:22:05;;;;;;;;;;;18.00;59.90;;;;;;5051059;28;20479;-58
2021/10/30 10:24:32;;;;;;;;;;;18.00;59.80;;;;;;5051402;28;19919;-58
2021/10/30 10:26:58;;;;;;;;;;;18.00;59.70;;;;;;5057814;28;19917;-55
2021/10/30 10:29:27;;;;;;;;;;;18.00;59.80;;;;;;5049590;28;20336;-55
2021/10/30 10:31:53;;;;;;;;;;;18.10;59.70;;;;;;5051780;28;19991;-55
2021/10/30 10:34:22;;;;;;;;;;;18.10;59.60;;;;;;5047994;28;19974;-55
2021/10/30 10:36:47;;;;;;;;;;;18.10;59.50;;;;;;5048504;28;19962;-56
2021/10/30 10:39:13;;;;;;;;;;;18.10;59.40;;;;;;5053952;28;20572;-52
2021/10/30 10:41:48;;;;;;;;;;;18.10;59.20;;;;;;5060534;28;20475;-56
2021/10/30 10:44:16;;;;;;;;;;;18.10;59.00;;;;;;5042837;28;19917;-56
2021/10/30 10:46:51;;;;;;;;;;;18.10;58.90;;;;;;5052684;28;19931;-57
2021/10/30 10:49:18;;;;;;;;;;;18.10;58.80;;;;;;5041484;28;19917;-56
2021/10/30 10:51:47;;;;;;;;;;;18.10;58.60;;;;;;5059144;28;19920;-56
2021/10/30 10:54:13;;;;;;;;;;;18.10;58.50;;;;;;5039862;28;19968;-56
2021/10/30 10:56:57;;;;;;;;;;;18.10;58.30;;;;;;5049038;28;19913;-56
2021/10/30 10:59:39;;;;;;;;;;;18.10;58.30;;;;;;5042586;28;19925;-57
2021/10/30 11:02:20;;;;;;;;;;;18.10;58.10;;;;;;5053753;28;19913;-53
2021/10/30 11:05:21;;;;;;;;;;;18.10;58.10;;;;;;5058699;28;19916;-54
2021/10/30 11:07:46;;;;;;;;;;;18.10;58.00;;;;;;4953778;28;19942;-56
2021/10/30 11:10:25;;;;;;;;;;;18.10;58.00;;;;;;5028897;28;20361;-55
2021/10/30 11:13:01;;;;;;;;;;;18.10;58.00;;;;;;5041535;28;19916;-56
2021/10/30 11:15:28;;;;;;;;;;;18.10;58.10;;;;;;5048583;28;19920;-52
2021/10/30 11:18:04;;;;;;;;;;;18.10;58.10;;;;;;5052717;28;19928;-52
2021/10/30 11:20:35;;;;;;;;;;;18.10;58.10;;;;;;5053121;28;20373;-54
2021/10/30 11:23:02;;;;;;;;;;;18.10;58.00;;;;;;5050747;28;19912;-54
2021/10/30 11:25:30;;;;;;;;;;;18.10;58.00;;;;;;5045774;28;19916;-56
2021/10/30 11:27:56;;;;;;;;;;;18.10;57.90;;;;;;5050015;28;19935;-56
2021/10/30 11:30:34;;;;;;;;;;;18.10;57.80;;;;;;5059259;28;19995;-56
2021/10/30 11:33:20;;;;;;;;;;;18.10;57.90;;;;;;5047563;28;20473;-58
2021/10/30 11:36:04;;;;;;;;;;;18.10;57.70;;;;;;5047857;28;19912;-54
2021/10/30 11:38:31;;;;;;;;;;;18.10;57.70;;;;;;5049798;28;19917;-54
2021/10/30 11:40:57;;;;;;;;;;;18.10;57.70;;;;;;5052810;28;19966;-54
2021/10/30 11:43:26;;;;;;;;;;;18.10;57.80;;;;;;5056330;28;19916;-56
2021/10/30 11:45:58;;;;;;;;;;;18.10;57.90;;;;;;5050755;28;19943;-55
2021/10/30 11:48:34;;;;;;;;;;;18.20;58.20;;;;;;5060116;28;19917;-54
2021/10/30 11:50:59;;;;;;;;;;;18.20;58.50;;;;;;5054678;28;19913;-56
2021/10/30 11:53:31;;;;;;;;;;;18.20;58.60;;;;;;5056210;28;19961;-52
2021/10/30 11:55:59;;;;;;;;;;;18.20;58.80;;;;;;5056802;28;19913;-54
2021/10/30 11:58:34;;;;;;;;;;;18.20;59.10;;;;;;5047787;28;19917;-56
2021/10/30 12:00:59;;;;;;;;;;;18.20;59.40;;;;;;5053295;28;20402;-53
2021/10/30 12:03:32;;;;;;;;;;;18.10;59.80;;;;;;5053047;28;19972;-56
2021/10/30 12:05:58;;;;;;;;;;;18.10;60.00;;;;;;5045541;28;19917;-57
2021/10/30 12:08:24;;;;;;;;;;;18.20;60.50;;;;;;5055319;28;20459;-56
2021/10/30 12:10:49;;;;;;;;;;;18.20;60.90;;;;;;5051124;28;19917;-55
2021/10/30 12:13:16;;;;;;;;;;;18.20;60.90;;;;;;5051485;28;20454;-56
2021/10/30 12:15:41;;;;;;;;;;;18.20;60.60;;;;;;5053235;28;19986;-54
2021/10/30 12:18:07;;;;;;;;;;;18.20;60.60;;;;;;5048937;28;20309;-55
2021/10/30 12:20:33;;;;;;;;;;;18.20;61.50;;;;;;5063263;28;19912;-56
2021/10/30 12:22:59;;;;;;;;;;;18.20;62.70;;;;;;5046990;28;21934;-57
2021/10/30 12:25:28;;;;;;;;;;;18.20;62.90;;;;;;5053712;28;19917;-56
2021/10/30 12:27:56;;;;;;;;;;;18.20;62.90;;;;;;5048178;28;19978;-57
2021/10/30 12:30:25;;;;;;;;;;;18.20;62.70;;;;;;5055849;28;19917;-57
2021/10/30 12:32:51;;;;;;;;;;;18.20;62.00;;;;;;5050757;28;19913;-56
2021/10/30 12:35:23;;;;;;;;;;;18.20;62.00;;;;;;5053485;28;20278;-57
2021/10/30 12:37:49;;;;;;;;;;;18.20;61.60;;;;;;5046693;28;20386;-56
2021/10/30 12:40:14;;;;;;;;;;;18.20;61.20;;;;;;5056158;28;19925;-54
2021/10/30 12:42:40;;;;;;;;;;;18.20;61.10;;;;;;5043575;28;20015;-56
2021/10/30 12:45:05;;;;;;;;;;;18.20;60.90;;;;;;5047417;28;20386;-56
2021/10/30 12:47:32;;;;;;;;;;;18.20;60.80;;;;;;5046346;28;19982;-56
2021/10/30 12:49:58;;;;;;;;;;;18.20;60.70;;;;;;5049651;28;19913;-57
2021/10/30 12:52:37;;;;;;;;;;;18.20;60.50;;;;;;5061073;28;19975;-56
2021/10/30 12:55:02;;;;;;;;;;;18.20;60.30;;;;;;5060231;28;19912;-56
2021/10/30 12:57:28;;;;;;;;;;;18.20;60.20;;;;;;5055005;28;19917;-54
2021/10/30 13:00:00;;;;;;;;;;;18.20;60.30;;;;;;5049966;28;20070;-54
2021/10/30 13:02:25;;;;;;;;;;;18.20;60.30;;;;;;5047352;28;19913;-56
2021/10/30 13:04:51;;;;;;;;;;;18.20;60.10;;;;;;5048922;28;20004;-55
2021/10/30 13:07:17;;;;;;;;;;;18.20;60.10;;;;;;5046382;28;19912;-56
2021/10/30 13:09:42;;;;;;;;;;;18.20;60.20;;;;;;5046721;28;19928;-55
2021/10/30 13:12:08;;;;;;;;;;;18.20;60.10;;;;;;5042498;28;19966;-56
2021/10/30 13:14:34;;;;;;;;;;;18.20;60.10;;;;;;5053766;28;19913;-57
2021/10/30 13:17:00;;;;;;;;;;;18.20;60.10;;;;;;5046304;28;20004;-57
2021/10/30 13:19:26;;;;;;;;;;;18.20;60.00;;;;;;5052874;28;19987;-55
2021/10/30 13:21:52;;;;;;;;;;;18.20;59.90;;;;;;5051610;28;19912;-52
2021/10/30 13:24:17;;;;;;;;;;;18.20;59.90;;;;;;5056059;28;19923;-58
2021/10/30 13:26:43;;;;;;;;;;;18.20;59.50;;;;;;5051693;28;19978;-52
2021/10/30 13:29:09;;;;;;;;;;;18.20;59.40;;;;;;5041880;28;19920;-56
2021/10/30 13:31:35;;;;;;;;;;;18.30;59.20;;;;;;5051479;28;19923;-53
2021/10/30 13:34:01;;;;;;;;;;;18.30;59.00;;;;;;5042010;28;19920;-56
2021/10/30 13:36:26;;;;;;;;;;;18.30;59.00;;;;;;5054213;28;19951;-56
2021/10/30 13:38:53;;;;;;;;;;;18.30;59.00;;;;;;5048065;28;19921;-55
2021/10/30 13:41:19;;;;;;;;;;;18.30;58.90;;;;;;5059048;28;20308;-54
2021/10/30 13:43:46;;;;;;;;;;;18.20;58.70;;;;;;5048876;28;19920;-52
2021/10/30 13:46:12;;;;;;;;;;;18.20;58.60;;;;;;5035888;28;19952;-55
2021/10/30 13:48:37;;;;;;;;;;;18.20;58.30;;;;;;5033104;28;19927;-56
2021/10/30 13:51:03;;;;;;;;;;;18.20;58.20;;;;;;5046689;28;19912;-52
2021/10/30 13:53:28;;;;;;;;;;;18.30;58.20;;;;;;5037557;28;19970;-52
2021/10/30 13:55:53;;;;;;;;;;;18.20;57.80;;;;;;5041151;28;19979;-56
2021/10/30 13:58:19;;;;;;;;;;;18.20;57.70;;;;;;5032916;28;20465;-56
2021/10/30 14:00:44;;;;;;;;;;;18.20;57.40;;;;;;5044927;28;19944;-55
2021/10/30 14:03:10;;;;;;;;;;;18.20;57.50;;;;;;5048558;28;19920;-56
2021/10/30 14:05:35;;;;;;;;;;;18.20;57.30;;;;;;5046525;28;20352;-56
2021/10/30 14:08:01;;;;;;;;;;;18.20;57.30;;;;;;5051756;28;19919;-54
2021/10/30 14:10:26;;;;;;;;;;;18.20;57.10;;;;;;5056883;28;20114;-55
2021/10/30 14:12:52;;;;;;;;;;;18.20;57.00;;;;;;5050298;28;19978;-54